Time;durP1;ratioP1;P1;durP2;ratioP2;P2;SDS_P1;SDS_P2;PMS_P1;PMS_P2;Temp;Humidity;BMP_temperature;BMP_pressure;BME280_temperature;BME280_humidity;BME280_pressure;Samples;Min_cycle;Max_cycle;Signal;HPM_P1;HPM_P2
2023/08/02 00:02:14;;;;;;;14.25;3.63;;;;;;;;;;5003358;28;20265;-73
2023/08/02 00:04:41;;;;;;;10.35;3.03;;;;;;;;;;5005874;28;20215;-72
2023/08/02 00:07:06;;;;;;;12.63;3.22;;;;;;;;;;5008495;28;20203;-72
2023/08/02 00:09:33;;;;;;;13.35;3.78;;;;;;;;;;4990346;28;20191;-74
2023/08/02 00:11:58;;;;;;;10.65;3.50;;;;;;;;;;5000344;28;20253;-73
2023/08/02 00:14:24;;;;;;;16.15;3.80;;;;;;;;;;5006313;28;20300;-73
2023/08/02 00:16:49;;;;;;;15.27;3.65;;;;;;;;;;5002869;28;20207;-74
2023/08/02 00:19:15;;;;;;;10.02;2.97;;;;;;;;;;5000543;28;20190;-73
2023/08/02 00:21:41;;;;;;;13.93;3.42;;;;;;;;;;5009446;28;20189;-73
2023/08/02 00:24:07;;;;;;;13.13;4.68;;;;;;;;;;5015089;28;20702;-73
2023/08/02 00:26:32;;;;;;;10.02;3.75;;;;;;;;;;5010949;28;20193;-73
2023/08/02 00:28:57;;;;;;;12.30;3.47;;;;;;;;;;5010026;28;20226;-73
2023/08/02 00:31:23;;;;;;;12.57;4.60;;;;;;;;;;4995406;28;20201;-73
2023/08/02 00:33:48;;;;;;;11.23;3.88;;;;;;;;;;5009653;28;20561;-73
2023/08/02 00:36:13;;;;;;;12.40;4.40;;;;;;;;;;4989611;28;20263;-72
2023/08/02 00:38:39;;;;;;;12.57;3.58;;;;;;;;;;5021863;28;20198;-73
2023/08/02 00:41:06;;;;;;;14.82;4.70;;;;;;;;;;5006746;28;20179;-71
2023/08/02 00:43:41;;;;;;;16.23;4.95;;;;;;;;;;5008736;28;20714;-72
2023/08/02 00:46:12;;;;;;;17.60;4.85;;;;;;;;;;5010392;28;20232;-74
2023/08/02 00:48:38;;;;;;;15.02;4.45;;;;;;;;;;4992247;28;20186;-74
2023/08/02 00:51:04;;;;;;;13.05;5.22;;;;;;;;;;4989356;28;20660;-74
2023/08/02 00:53:30;;;;;;;16.05;5.72;;;;;;;;;;5007937;28;20175;-73
2023/08/02 00:55:56;;;;;;;16.52;5.55;;;;;;;;;;4999249;28;20559;-72
2023/08/02 00:58:22;;;;;;;15.13;5.70;;;;;;;;;;5009879;28;20205;-72
2023/08/02 01:00:47;;;;;;;13.32;5.03;;;;;;;;;;5002024;28;20191;-73
2023/08/02 01:03:13;;;;;;;18.10;5.15;;;;;;;;;;5003238;28;20222;-75
2023/08/02 01:05:43;;;;;;;11.45;4.65;;;;;;;;;;5007080;28;20199;-75
2023/08/02 01:08:15;;;;;;;17.73;4.85;;;;;;;;;;4976184;28;20252;-75
2023/08/02 01:11:16;;;;;;;11.30;4.10;;;;;;;;;;5008280;28;20681;-74
2023/08/02 01:13:48;;;;;;;18.00;4.82;;;;;;;;;;4993260;28;20290;-72
2023/08/02 01:16:15;;;;;;;16.05;5.13;;;;;;;;;;4982682;28;20265;-72
2023/08/02 01:18:40;;;;;;;15.98;5.70;;;;;;;;;;5020978;28;20693;-72
2023/08/02 01:21:06;;;;;;;12.73;5.32;;;;;;;;;;4990468;28;20190;-72
2023/08/02 01:23:31;;;;;;;18.05;5.45;;;;;;;;;;5010545;28;20362;-72
2023/08/02 01:25:59;;;;;;;10.32;4.93;;;;;;;;;;5003069;28;20666;-72
2023/08/02 01:28:25;;;;;;;16.35;5.32;;;;;;;;;;5007504;28;20682;-72
2023/08/02 01:30:53;;;;;;;9.50;5.07;;;;;;;;;;5005170;28;20346;-72
2023/08/02 01:33:20;;;;;;;18.10;6.18;;;;;;;;;;4996293;28;20684;-73
2023/08/02 01:35:45;;;;;;;14.43;5.78;;;;;;;;;;5008215;28;20292;-73
2023/08/02 01:38:11;;;;;;;16.23;6.00;;;;;;;;;;4984811;28;20686;-73
2023/08/02 01:40:36;;;;;;;15.50;6.45;;;;;;;;;;5009608;28;20273;-73
2023/08/02 01:43:02;;;;;;;16.88;6.35;;;;;;;;;;5020476;28;20203;-73
2023/08/02 01:45:27;;;;;;;17.75;6.70;;;;;;;;;;5014209;28;20245;-73
2023/08/02 01:47:52;;;;;;;16.55;5.97;;;;;;;;;;4996500;28;20178;-72
2023/08/02 01:50:18;;;;;;;11.07;6.25;;;;;;;;;;5002240;28;20188;-72
2023/08/02 01:52:43;;;;;;;17.65;7.22;;;;;;;;;;5008064;28;20234;-73
2023/08/02 01:55:09;;;;;;;18.90;7.25;;;;;;;;;;5008298;28;20195;-72
2023/08/02 01:57:34;;;;;;;14.45;7.22;;;;;;;;;;5005288;28;20195;-73
2023/08/02 02:00:00;;;;;;;14.25;6.53;;;;;;;;;;5013171;28;20256;-73
2023/08/02 02:02:25;;;;;;;20.25;7.40;;;;;;;;;;5004634;28;20198;-73
2023/08/02 02:04:51;;;;;;;16.75;6.47;;;;;;;;;;4975520;28;20278;-72
2023/08/02 02:07:16;;;;;;;20.55;6.90;;;;;;;;;;5003873;28;20193;-71
2023/08/02 02:09:42;;;;;;;23.60;7.47;;;;;;;;;;4994731;28;20194;-72
2023/08/02 02:12:07;;;;;;;17.00;7.78;;;;;;;;;;4999261;28;20583;-73
2023/08/02 02:14:32;;;;;;;15.15;7.75;;;;;;;;;;5012397;28;20214;-72
2023/08/02 02:16:58;;;;;;;15.98;6.93;;;;;;;;;;5011204;28;20217;-72
2023/08/02 02:19:23;;;;;;;14.68;7.28;;;;;;;;;;5002986;28;20277;-71
2023/08/02 02:21:49;;;;;;;13.95;7.70;;;;;;;;;;5012302;28;20566;-72
2023/08/02 02:24:14;;;;;;;17.52;8.02;;;;;;;;;;5001502;28;20258;-72
2023/08/02 02:26:39;;;;;;;16.75;6.70;;;;;;;;;;5013067;28;20271;-71
2023/08/02 02:29:05;;;;;;;18.08;7.55;;;;;;;;;;5011206;28;20230;-71
2023/08/02 02:31:30;;;;;;;17.75;8.18;;;;;;;;;;5000969;28;20218;-72
2023/08/02 02:33:55;;;;;;;17.92;6.93;;;;;;;;;;5003896;28;20199;-73
2023/08/02 02:36:21;;;;;;;17.00;6.88;;;;;;;;;;4998853;28;20334;-72
2023/08/02 02:38:46;;;;;;;14.88;7.50;;;;;;;;;;5008927;28;20553;-71
2023/08/02 02:41:11;;;;;;;15.93;7.18;;;;;;;;;;5001101;28;20194;-73
2023/08/02 02:43:37;;;;;;;19.67;7.32;;;;;;;;;;5011723;28;20291;-72
2023/08/02 02:46:02;;;;;;;17.05;6.78;;;;;;;;;;5014546;28;20205;-72
2023/08/02 02:48:28;;;;;;;19.67;7.18;;;;;;;;;;5013066;28;20603;-72
2023/08/02 02:50:53;;;;;;;23.25;7.95;;;;;;;;;;4999858;28;20615;-72
2023/08/02 02:53:20;;;;;;;14.13;7.45;;;;;;;;;;5004072;28;20342;-72
2023/08/02 02:55:46;;;;;;;16.83;6.93;;;;;;;;;;5006336;28;20201;-72
2023/08/02 02:58:11;;;;;;;13.90;7.05;;;;;;;;;;4983197;28;20199;-72
2023/08/02 03:00:36;;;;;;;14.98;7.20;;;;;;;;;;4987240;28;20245;-72
2023/08/02 03:03:02;;;;;;;18.67;7.75;;;;;;;;;;5001806;28;20211;-72
2023/08/02 03:05:27;;;;;;;23.08;6.95;;;;;;;;;;5009291;28;20245;-73
2023/08/02 03:07:53;;;;;;;15.23;7.25;;;;;;;;;;5001089;28;20191;-72
2023/08/02 03:10:18;;;;;;;19.52;8.27;;;;;;;;;;5002198;28;20657;-72
2023/08/02 03:12:43;;;;;;;16.42;7.47;;;;;;;;;;4999897;28;20191;-72
2023/08/02 03:15:09;;;;;;;18.42;6.50;;;;;;;;;;5007636;28;20660;-72
2023/08/02 03:17:34;;;;;;;15.48;6.65;;;;;;;;;;5005079;28;20202;-73
2023/08/02 03:20:00;;;;;;;14.82;6.72;;;;;;;;;;5002746;28;20566;-72
2023/08/02 03:22:25;;;;;;;14.45;6.47;;;;;;;;;;5015681;28;20514;-72
2023/08/02 03:24:50;;;;;;;11.35;6.50;;;;;;;;;;5008205;28;20318;-72
2023/08/02 03:27:16;;;;;;;19.92;7.15;;;;;;;;;;5011361;28;20187;-72
2023/08/02 03:29:41;;;;;;;15.43;7.00;;;;;;;;;;5006752;28;20317;-73
2023/08/02 03:32:08;;;;;;;16.83;6.75;;;;;;;;;;5007669;28;20209;-73
2023/08/02 03:34:33;;;;;;;14.80;6.32;;;;;;;;;;5019598;28;20194;-73
2023/08/02 03:36:59;;;;;;;15.23;6.88;;;;;;;;;;4983771;28;20567;-73
2023/08/02 03:39:27;;;;;;;14.88;7.38;;;;;;;;;;5010887;28;20195;-73
2023/08/02 03:41:55;;;;;;;13.43;6.40;;;;;;;;;;5005014;28;20346;-72
2023/08/02 03:44:21;;;;;;;17.92;7.03;;;;;;;;;;5005467;28;20282;-72
2023/08/02 03:46:46;;;;;;;18.63;7.28;;;;;;;;;;5009937;28;20931;-72
2023/08/02 03:49:12;;;;;;;9.75;6.35;;;;;;;;;;5012548;28;20195;-73
2023/08/02 03:51:37;;;;;;;14.88;6.72;;;;;;;;;;4995813;28;20191;-72
2023/08/02 03:54:03;;;;;;;14.20;6.22;;;;;;;;;;5004114;28;20199;-73
2023/08/02 03:56:29;;;;;;;13.27;7.03;;;;;;;;;;4995659;28;20280;-73
2023/08/02 03:58:55;;;;;;;15.30;6.63;;;;;;;;;;5013184;28;20191;-74
2023/08/02 04:01:20;;;;;;;18.08;6.55;;;;;;;;;;5007416;28;20410;-73
2023/08/02 04:03:46;;;;;;;18.33;6.50;;;;;;;;;;5011953;28;20265;-73
2023/08/02 04:06:11;;;;;;;14.40;6.95;;;;;;;;;;5006819;28;20514;-73
2023/08/02 04:08:36;;;;;;;12.95;6.75;;;;;;;;;;5009044;28;20187;-73
2023/08/02 04:11:04;;;;;;;11.90;7.00;;;;;;;;;;4993320;28;20187;-72
2023/08/02 04:13:29;;;;;;;13.88;6.03;;;;;;;;;;5003444;28;20670;-72
2023/08/02 04:15:54;;;;;;;15.32;6.82;;;;;;;;;;5016976;28;20216;-73
2023/08/02 04:18:20;;;;;;;13.40;6.88;;;;;;;;;;5010806;28;20218;-72
2023/08/02 04:20:45;;;;;;;14.23;5.85;;;;;;;;;;4999012;28;20269;-72
2023/08/02 04:23:11;;;;;;;16.00;6.85;;;;;;;;;;5013192;28;20300;-72
2023/08/02 04:25:36;;;;;;;15.18;6.15;;;;;;;;;;4992777;28;20201;-72
2023/08/02 04:28:01;;;;;;;16.38;6.55;;;;;;;;;;5013543;28;20308;-72
2023/08/02 04:30:27;;;;;;;14.13;6.15;;;;;;;;;;5004373;28;20199;-74
2023/08/02 04:32:53;;;;;;;17.63;6.55;;;;;;;;;;5003950;28;20218;-73
2023/08/02 04:35:19;;;;;;;11.07;5.75;;;;;;;;;;5011777;28;20256;-73
2023/08/02 04:37:45;;;;;;;12.88;6.15;;;;;;;;;;5007916;28;20552;-72
2023/08/02 04:40:10;;;;;;;12.00;5.63;;;;;;;;;;4992449;28;20193;-73
2023/08/02 04:42:36;;;;;;;14.68;6.20;;;;;;;;;;5001184;28;20195;-72
2023/08/02 04:45:01;;;;;;;14.63;5.70;;;;;;;;;;5019735;28;20568;-73
2023/08/02 04:47:27;;;;;;;14.10;5.93;;;;;;;;;;4992650;28;20290;-73
2023/08/02 04:49:53;;;;;;;14.50;5.75;;;;;;;;;;5021786;28;20630;-73
2023/08/02 04:52:19;;;;;;;10.88;5.25;;;;;;;;;;5009719;28;20191;-73
2023/08/02 04:54:44;;;;;;;15.13;5.45;;;;;;;;;;5000404;28;20183;-73
2023/08/02 04:57:09;;;;;;;11.40;4.90;;;;;;;;;;5004218;28;20302;-73
2023/08/02 04:59:35;;;;;;;11.15;4.70;;;;;;;;;;5006272;28;20182;-73
2023/08/02 05:02:00;;;;;;;15.77;5.07;;;;;;;;;;4998636;28;20285;-73
2023/08/02 05:04:26;;;;;;;14.02;5.20;;;;;;;;;;5004307;28;20215;-73
2023/08/02 05:06:51;;;;;;;7.45;4.45;;;;;;;;;;5006487;28;20197;-72
2023/08/02 05:09:17;;;;;;;12.38;4.97;;;;;;;;;;4993796;28;20186;-72
2023/08/02 05:11:43;;;;;;;11.43;4.68;;;;;;;;;;5009200;28;20194;-73
2023/08/02 05:14:08;;;;;;;9.05;4.35;;;;;;;;;;5014931;28;20182;-73
2023/08/02 05:16:35;;;;;;;10.02;4.35;;;;;;;;;;5013271;28;20199;-72
2023/08/02 05:19:00;;;;;;;15.75;4.28;;;;;;;;;;5016131;28;20190;-74
2023/08/02 05:21:26;;;;;;;12.80;4.90;;;;;;;;;;4981041;28;20191;-73
2023/08/02 05:23:51;;;;;;;14.02;5.03;;;;;;;;;;5008961;28;20203;-72
2023/08/02 05:26:17;;;;;;;11.02;4.78;;;;;;;;;;4994973;28;20199;-74
2023/08/02 05:28:42;;;;;;;9.30;4.38;;;;;;;;;;4995229;28;20231;-72
2023/08/02 05:31:12;;;;;;;8.63;4.25;;;;;;;;;;4983254;28;20195;-73
2023/08/02 05:33:37;;;;;;;10.88;4.22;;;;;;;;;;4992553;28;20196;-74
2023/08/02 05:36:03;;;;;;;8.90;4.15;;;;;;;;;;4994227;28;20265;-73
2023/08/02 05:38:30;;;;;;;14.93;4.55;;;;;;;;;;4991700;28;20214;-73
2023/08/02 05:40:59;;;;;;;12.77;4.47;;;;;;;;;;4985439;28;20257;-73
2023/08/02 05:43:25;;;;;;;7.28;3.40;;;;;;;;;;4981771;28;20226;-74
2023/08/02 05:45:53;;;;;;;10.55;4.15;;;;;;;;;;4992629;28;20196;-74
2023/08/02 05:48:19;;;;;;;11.35;4.43;;;;;;;;;;4985937;28;20663;-74
2023/08/02 05:50:44;;;;;;;13.10;3.97;;;;;;;;;;4987557;28;20188;-74
2023/08/02 05:53:09;;;;;;;10.07;3.85;;;;;;;;;;4995361;28;20214;-73
2023/08/02 05:55:35;;;;;;;9.95;4.40;;;;;;;;;;4983327;28;20202;-73
2023/08/02 05:58:00;;;;;;;11.27;4.40;;;;;;;;;;4989118;28;20194;-73
2023/08/02 06:00:25;;;;;;;7.25;3.90;;;;;;;;;;4986303;28;20272;-72
2023/08/02 06:02:51;;;;;;;8.50;3.80;;;;;;;;;;4990436;28;20195;-73
2023/08/02 06:05:16;;;;;;;9.88;3.55;;;;;;;;;;4995804;28;20262;-73
2023/08/02 06:07:41;;;;;;;9.32;3.72;;;;;;;;;;5002339;28;20566;-72
2023/08/02 06:10:07;;;;;;;7.60;3.55;;;;;;;;;;4994221;28;20562;-72
2023/08/02 06:12:33;;;;;;;9.90;3.28;;;;;;;;;;4990894;28;20234;-74
2023/08/02 06:14:58;;;;;;;7.93;3.17;;;;;;;;;;4986582;28;20191;-73
2023/08/02 06:17:26;;;;;;;8.80;3.30;;;;;;;;;;4991323;28;20609;-73
2023/08/02 06:19:51;;;;;;;10.80;3.70;;;;;;;;;;4986501;28;20219;-73
2023/08/02 06:22:17;;;;;;;10.95;3.03;;;;;;;;;;4989466;28;20293;-72
2023/08/02 06:24:43;;;;;;;7.90;3.28;;;;;;;;;;4996614;28;20212;-73
2023/08/02 06:27:09;;;;;;;8.38;3.20;;;;;;;;;;4979270;28;20261;-73
2023/08/02 06:29:35;;;;;;;7.45;3.10;;;;;;;;;;4994521;28;20314;-73
2023/08/02 06:32:00;;;;;;;8.57;3.38;;;;;;;;;;5003294;28;20188;-73
2023/08/02 06:34:25;;;;;;;8.88;3.13;;;;;;;;;;4981379;28;20190;-73
2023/08/02 06:36:51;;;;;;;8.05;3.30;;;;;;;;;;4989704;28;20699;-73
2023/08/02 06:39:16;;;;;;;8.95;2.83;;;;;;;;;;5011715;28;20197;-73
2023/08/02 06:41:41;;;;;;;11.18;3.25;;;;;;;;;;4991508;28;20195;-73
2023/08/02 06:44:07;;;;;;;6.93;2.63;;;;;;;;;;5002751;28;20216;-73
2023/08/02 06:46:33;;;;;;;8.30;3.08;;;;;;;;;;4989265;28;20246;-73
2023/08/02 06:48:58;;;;;;;7.22;3.13;;;;;;;;;;4991709;28;20199;-72
2023/08/02 06:51:24;;;;;;;8.00;3.17;;;;;;;;;;4987550;28;20199;-73
2023/08/02 06:53:49;;;;;;;10.90;3.70;;;;;;;;;;4991602;28;20301;-73
2023/08/02 06:56:18;;;;;;;9.63;3.60;;;;;;;;;;5006172;28;20188;-73
2023/08/02 06:58:44;;;;;;;6.82;3.42;;;;;;;;;;4990563;28;20659;-73
2023/08/02 07:01:17;;;;;;;10.77;3.90;;;;;;;;;;4986357;28;20188;-76
2023/08/02 07:03:43;;;;;;;9.73;3.78;;;;;;;;;;4976970;28;20263;-72
2023/08/02 07:06:13;;;;;;;7.78;3.70;;;;;;;;;;4988261;28;21245;-72
2023/08/02 07:08:40;;;;;;;14.05;4.03;;;;;;;;;;4982513;28;20497;-72
2023/08/02 07:11:05;;;;;;;9.40;3.55;;;;;;;;;;4998810;28;20183;-72
2023/08/02 07:13:32;;;;;;;12.85;3.90;;;;;;;;;;4983960;28;20195;-72
2023/08/02 07:15:58;;;;;;;8.30;3.72;;;;;;;;;;4990389;28;20191;-72
2023/08/02 07:18:24;;;;;;;10.15;4.18;;;;;;;;;;4987742;28;20223;-73
2023/08/02 07:20:49;;;;;;;14.07;4.78;;;;;;;;;;4992044;28;20191;-72
2023/08/02 07:23:14;;;;;;;14.02;4.63;;;;;;;;;;4999725;28;20211;-73
2023/08/02 07:25:40;;;;;;;15.77;5.28;;;;;;;;;;4989587;28;20203;-73
2023/08/02 07:28:06;;;;;;;10.77;4.32;;;;;;;;;;4989645;28;20288;-74
2023/08/02 07:30:32;;;;;;;13.40;5.07;;;;;;;;;;4985073;28;20203;-74
2023/08/02 07:32:57;;;;;;;10.40;4.55;;;;;;;;;;5005745;28;20338;-73
2023/08/02 07:35:22;;;;;;;14.65;5.55;;;;;;;;;;5002568;28;20720;-73
2023/08/02 07:37:48;;;;;;;15.75;5.72;;;;;;;;;;4995907;28;20234;-76
2023/08/02 07:40:13;;;;;;;14.65;5.82;;;;;;;;;;4991198;28;20199;-75
2023/08/02 07:42:39;;;;;;;10.75;5.40;;;;;;;;;;5014200;28;20190;-75
2023/08/02 07:45:07;;;;;;;15.07;6.07;;;;;;;;;;4986506;28;20203;-75
2023/08/02 07:47:33;;;;;;;12.35;5.70;;;;;;;;;;4990416;28;20199;-76
2023/08/02 07:49:58;;;;;;;11.85;5.95;;;;;;;;;;4999553;28;20330;-76
2023/08/02 07:52:24;;;;;;;15.95;6.22;;;;;;;;;;4988287;28;20647;-76
2023/08/02 07:54:52;;;;;;;14.95;5.82;;;;;;;;;;4991629;28;20191;-75
2023/08/02 07:57:17;;;;;;;13.05;5.82;;;;;;;;;;4976919;28;20242;-75
2023/08/02 07:59:42;;;;;;;13.20;5.00;;;;;;;;;;5019947;28;20187;-73
2023/08/02 08:02:08;;;;;;;10.60;5.75;;;;;;;;;;4993977;28;20278;-76
2023/08/02 08:04:33;;;;;;;16.65;5.57;;;;;;;;;;4987596;28;20589;-74
2023/08/02 08:06:59;;;;;;;11.70;5.18;;;;;;;;;;5002165;28;20183;-75
2023/08/02 08:09:24;;;;;;;12.15;5.18;;;;;;;;;;5015162;28;20277;-76
2023/08/02 08:11:50;;;;;;;14.45;5.55;;;;;;;;;;4992805;28;20179;-75
2023/08/02 08:14:15;;;;;;;14.32;5.68;;;;;;;;;;4992768;28;20202;-75
2023/08/02 08:16:41;;;;;;;11.70;5.53;;;;;;;;;;5004714;28;20179;-75
2023/08/02 08:19:06;;;;;;;12.07;5.78;;;;;;;;;;4997080;28;20676;-76
2023/08/02 08:21:31;;;;;;;12.55;5.20;;;;;;;;;;4986761;28;20286;-74
2023/08/02 08:23:57;;;;;;;12.80;5.63;;;;;;;;;;5005627;28;20307;-73
2023/08/02 08:26:23;;;;;;;8.77;5.25;;;;;;;;;;4991614;28;20188;-74
2023/08/02 08:28:49;;;;;;;8.57;5.13;;;;;;;;;;4972674;28;20250;-73
2023/08/02 08:31:14;;;;;;;12.23;4.82;;;;;;;;;;5004251;28;20603;-75
2023/08/02 08:33:39;;;;;;;11.52;4.95;;;;;;;;;;5003371;28;20600;-75
2023/08/02 08:36:13;;;;;;;10.18;4.90;;;;;;;;;;4983552;28;20188;-75
2023/08/02 08:38:38;;;;;;;13.52;5.35;;;;;;;;;;5002533;28;20199;-75
2023/08/02 08:41:03;;;;;;;10.52;4.95;;;;;;;;;;4988036;28;20191;-73
2023/08/02 08:43:29;;;;;;;11.50;5.35;;;;;;;;;;4985278;28;20270;-74
2023/08/02 08:45:56;;;;;;;9.88;4.95;;;;;;;;;;4984603;28;20195;-75
2023/08/02 08:48:23;;;;;;;9.40;4.53;;;;;;;;;;4987943;28;20195;-74
2023/08/02 08:50:49;;;;;;;10.50;5.10;;;;;;;;;;4989201;28;20199;-75
2023/08/02 08:53:19;;;;;;;9.20;5.25;;;;;;;;;;4977027;28;20180;-74
2023/08/02 08:55:49;;;;;;;9.55;4.70;;;;;;;;;;4996508;28;20188;-75
2023/08/02 08:58:16;;;;;;;6.32;4.30;;;;;;;;;;4971020;28;20183;-76
2023/08/02 09:00:43;;;;;;;8.32;4.82;;;;;;;;;;4972106;28;20547;-74
2023/08/02 09:03:10;;;;;;;8.77;4.85;;;;;;;;;;4991540;28;20283;-76
2023/08/02 09:05:36;;;;;;;7.57;4.28;;;;;;;;;;4999520;28;20258;-75
2023/08/02 09:08:01;;;;;;;6.75;4.25;;;;;;;;;;4984296;28;20187;-75
2023/08/02 09:10:26;;;;;;;6.28;4.43;;;;;;;;;;4976077;28;20207;-75
2023/08/02 09:12:52;;;;;;;7.03;3.97;;;;;;;;;;4997772;28;20190;-74
2023/08/02 09:15:17;;;;;;;5.28;3.42;;;;;;;;;;4991821;28;20211;-75
2023/08/02 09:17:50;;;;;;;6.40;4.07;;;;;;;;;;4985995;28;20640;-73
2023/08/02 09:20:17;;;;;;;5.32;3.38;;;;;;;;;;4991756;28;20290;-75
2023/08/02 09:22:42;;;;;;;5.20;3.40;;;;;;;;;;4992509;28;20254;-74
2023/08/02 09:25:19;;;;;;;5.47;3.15;;;;;;;;;;4987556;28;20207;-73
2023/08/02 09:27:46;;;;;;;4.72;2.72;;;;;;;;;;4988924;28;20640;-75
2023/08/02 09:30:22;;;;;;;7.10;3.15;;;;;;;;;;4995264;28;20251;-75
2023/08/02 09:32:58;;;;;;;4.45;2.67;;;;;;;;;;5013781;28;20198;-75
2023/08/02 09:35:24;;;;;;;3.83;2.55;;;;;;;;;;4995519;28;20368;-75
2023/08/02 09:37:50;;;;;;;8.20;4.75;;;;;;;;;;5009907;28;20724;-74
2023/08/02 09:40:15;;;;;;;13.23;5.65;;;;;;;;;;4992747;28;20195;-74
2023/08/02 09:42:41;;;;;;;7.35;4.13;;;;;;;;;;4997243;28;20210;-74
2023/08/02 09:45:08;;;;;;;9.10;4.60;;;;;;;;;;5013968;28;20213;-75
2023/08/02 09:47:34;;;;;;;7.82;4.30;;;;;;;;;;4992962;28;20195;-74
2023/08/02 09:50:03;;;;;;;3.88;2.92;;;;;;;;;;4993941;28;20197;-73
2023/08/02 09:52:29;;;;;;;5.65;3.13;;;;;;;;;;5012885;28;20190;-74
2023/08/02 09:54:54;;;;;;;5.65;2.80;;;;;;;;;;5017583;28;20672;-73
2023/08/02 09:57:28;;;;;;;3.15;2.60;;;;;;;;;;5000327;28;20203;-74
2023/08/02 09:59:55;;;;;;;5.07;2.55;;;;;;;;;;5025883;28;20637;-75
2023/08/02 10:02:25;;;;;;;5.18;2.28;;;;;;;;;;4997110;28;20182;-75
2023/08/02 10:04:56;;;;;;;3.88;2.42;;;;;;;;;;4996045;28;20590;-74
2023/08/02 10:07:27;;;;;;;3.70;2.88;;;;;;;;;;5014003;28;20777;-74
2023/08/02 10:09:59;;;;;;;4.22;2.47;;;;;;;;;;5006180;28;20183;-72
2023/08/02 10:12:25;;;;;;;2.90;2.40;;;;;;;;;;5008961;28;20233;-74
2023/08/02 10:14:51;;;;;;;3.92;2.80;;;;;;;;;;4996114;28;20187;-74
2023/08/02 10:17:19;;;;;;;4.50;2.30;;;;;;;;;;5012083;28;20230;-73
2023/08/02 10:19:46;;;;;;;4.65;2.72;;;;;;;;;;5008878;28;20535;-73
2023/08/02 10:22:12;;;;;;;3.22;2.00;;;;;;;;;;4997289;28;20676;-73
2023/08/02 10:24:40;;;;;;;2.00;1.70;;;;;;;;;;4996873;28;20252;-71
2023/08/02 10:27:06;;;;;;;2.30;1.60;;;;;;;;;;5014115;28;20194;-73
2023/08/02 10:29:33;;;;;;;4.47;1.58;;;;;;;;;;5010550;28;20232;-74
2023/08/02 10:32:11;;;;;;;1.75;1.35;;;;;;;;;;4980355;28;20246;-72
2023/08/02 10:34:36;;;;;;;3.38;1.30;;;;;;;;;;5010563;28;20191;-73
2023/08/02 10:37:03;;;;;;;1.55;1.42;;;;;;;;;;5001876;28;20199;-73
2023/08/02 10:39:50;;;;;;;4.25;1.52;;;;;;;;;;4994822;28;20199;-72
2023/08/02 10:42:18;;;;;;;1.60;1.20;;;;;;;;;;4992206;28;20195;-72
2023/08/02 10:44:55;;;;;;;1.90;1.13;;;;;;;;;;4979335;28;20206;-72
2023/08/02 10:47:34;;;;;;;2.90;1.50;;;;;;;;;;5004186;28;20190;-74
2023/08/02 10:50:01;;;;;;;1.27;1.17;;;;;;;;;;4975937;28;20188;-74
2023/08/02 10:52:38;;;;;;;3.65;1.40;;;;;;;;;;4979855;28;20647;-73
2023/08/02 10:55:12;;;;;;;1.90;1.30;;;;;;;;;;4986112;28;20244;-74
2023/08/02 10:57:54;;;;;;;1.50;1.40;;;;;;;;;;4985678;28;20202;-72
2023/08/02 11:00:25;;;;;;;1.77;1.67;;;;;;;;;;4986658;28;20182;-73
2023/08/02 11:02:52;;;;;;;1.40;1.30;;;;;;;;;;5010233;28;20690;-75
2023/08/02 11:05:38;;;;;;;2.35;1.70;;;;;;;;;;4985080;28;20187;-75
2023/08/02 11:08:03;;;;;;;1.80;1.60;;;;;;;;;;5008438;28;20321;-74
2023/08/02 11:10:29;;;;;;;2.20;2.00;;;;;;;;;;5009728;28;20282;-74
2023/08/02 11:12:55;;;;;;;1.92;1.80;;;;;;;;;;5004612;28;20189;-73
2023/08/02 11:15:21;;;;;;;2.40;2.13;;;;;;;;;;4316370;28;10000739;-73
2023/08/02 11:17:56;;;;;;;2.50;2.13;;;;;;;;;;4989090;28;20273;-73
2023/08/02 11:20:35;;;;;;;2.55;1.90;;;;;;;;;;5003459;28;20238;-73
2023/08/02 11:23:00;;;;;;;4.88;1.77;;;;;;;;;;5006542;28;20278;-75
2023/08/02 11:25:26;;;;;;;3.08;2.60;;;;;;;;;;4990457;28;20285;-74
2023/08/02 11:28:02;;;;;;;2.28;2.17;;;;;;;;;;5007006;28;20257;-73
2023/08/02 11:30:28;;;;;;;2.33;2.13;;;;;;;;;;5002499;28;20692;-74
2023/08/02 11:32:53;;;;;;;2.75;2.55;;;;;;;;;;5002309;28;20191;-73
2023/08/02 11:35:20;;;;;;;2.65;2.38;;;;;;;;;;5008921;28;20650;-78
2023/08/02 11:37:46;;;;;;;3.00;2.40;;;;;;;;;;4976902;28;20183;-75
2023/08/02 11:40:12;;;;;;;3.83;2.42;;;;;;;;;;4972186;28;20245;-74
2023/08/02 11:42:47;;;;;;;2.33;2.13;;;;;;;;;;5000561;28;20186;-74
2023/08/02 11:45:12;;;;;;;2.80;2.60;;;;;;;;;;5004051;28;20708;-75
2023/08/02 11:47:38;;;;;;;3.80;2.55;;;;;;;;;;5005344;28;20270;-76
2023/08/02 11:50:04;;;;;;;3.70;3.00;;;;;;;;;;4981008;28;20464;-75
2023/08/02 11:52:32;;;;;;;4.25;2.67;;;;;;;;;;4980718;28;20680;-75
2023/08/02 11:54:58;;;;;;;3.35;3.05;;;;;;;;;;5002602;28;20195;-74
2023/08/02 11:57:25;;;;;;;3.17;2.90;;;;;;;;;;5000057;28;20195;-74
2023/08/02 11:59:52;;;;;;;4.40;3.40;;;;;;;;;;5007229;28;20206;-74
2023/08/02 12:02:28;;;;;;;3.35;3.08;;;;;;;;;;5005728;28;20203;-74
2023/08/02 12:04:54;;;;;;;3.70;3.40;;;;;;;;;;4999092;28;20280;-74
2023/08/02 12:07:33;;;;;;;3.83;3.38;;;;;;;;;;5005658;28;20947;-73
2023/08/02 12:10:01;;;;;;;2.70;2.50;;;;;;;;;;4999973;28;20222;-74
2023/08/02 12:12:35;;;;;;;3.28;2.70;;;;;;;;;;4988296;28;20458;-74
2023/08/02 12:15:11;;;;;;;2.80;2.50;;;;;;;;;;4998248;28;20206;-73
2023/08/02 12:17:36;;;;;;;2.63;2.17;;;;;;;;;;4988949;28;20199;-73
2023/08/02 12:20:02;;;;;;;2.63;2.42;;;;;;;;;;5005568;28;20205;-74
2023/08/02 12:22:27;;;;;;;3.40;2.30;;;;;;;;;;4988109;28;20188;-73
2023/08/02 12:25:04;;;;;;;3.13;2.13;;;;;;;;;;4976882;28;20757;-72
2023/08/02 12:27:29;;;;;;;3.40;2.20;;;;;;;;;;4994640;28;20603;-74
2023/08/02 12:30:11;;;;;;;2.42;2.22;;;;;;;;;;5002851;28;20234;-73
2023/08/02 12:32:36;;;;;;;2.90;2.58;;;;;;;;;;4980665;28;20190;-74
2023/08/02 12:35:06;;;;;;;3.53;2.70;;;;;;;;;;5007609;28;20201;-73
2023/08/02 12:37:32;;;;;;;6.15;3.05;;;;;;;;;;4992426;28;20202;-73
2023/08/02 12:39:58;;;;;;;6.47;2.80;;;;;;;;;;4969915;28;20647;-72
2023/08/02 12:42:23;;;;;;;3.00;2.80;;;;;;;;;;5003355;28;20199;-72
2023/08/02 12:44:48;;;;;;;4.85;3.30;;;;;;;;;;5005046;28;20662;-72
2023/08/02 12:47:14;;;;;;;4.07;3.45;;;;;;;;;;5007469;28;20194;-73
2023/08/02 12:49:39;;;;;;;3.75;3.45;;;;;;;;;;4997157;28;20274;-74
2023/08/02 12:52:05;;;;;;;3.00;2.80;;;;;;;;;;4993289;28;20599;-72
2023/08/02 12:54:30;;;;;;;3.30;3.00;;;;;;;;;;5002448;28;20322;-73
2023/08/02 12:56:55;;;;;;;2.85;2.60;;;;;;;;;;5008887;28;20658;-73
2023/08/02 12:59:21;;;;;;;3.42;3.13;;;;;;;;;;4997615;28;20193;-73
2023/08/02 13:01:47;;;;;;;3.22;2.92;;;;;;;;;;5007366;28;20558;-73
2023/08/02 13:04:12;;;;;;;3.60;3.30;;;;;;;;;;4993540;28;20202;-73
2023/08/02 13:06:37;;;;;;;3.78;3.47;;;;;;;;;;5007842;28;20193;-75
2023/08/02 13:09:03;;;;;;;3.15;2.90;;;;;;;;;;4997406;28;20222;-73
2023/08/02 13:11:28;;;;;;;2.83;2.63;;;;;;;;;;5009951;28;20190;-74
2023/08/02 13:13:53;;;;;;;5.47;3.40;;;;;;;;;;4991944;28;20214;-74
2023/08/02 13:16:19;;;;;;;3.63;3.33;;;;;;;;;;5008946;28;20740;-74
2023/08/02 13:18:44;;;;;;;3.80;3.50;;;;;;;;;;5009709;28;20298;-77
2023/08/02 13:21:10;;;;;;;4.05;3.42;;;;;;;;;;5004908;28;20686;-73
2023/08/02 13:23:35;;;;;;;5.40;3.67;;;;;;;;;;4995640;28;20209;-73
2023/08/02 13:26:03;;;;;;;3.78;3.17;;;;;;;;;;5000858;28;20658;-73
2023/08/02 13:28:28;;;;;;;3.17;2.47;;;;;;;;;;5010816;28;20265;-73
2023/08/02 13:30:58;;;;;;;2.47;2.20;;;;;;;;;;5001970;28;20230;-72
2023/08/02 13:33:24;;;;;;;2.58;2.38;;;;;;;;;;5003852;28;20183;-72
2023/08/02 13:35:49;;;;;;;1.77;1.65;;;;;;;;;;4990606;28;20668;-73
2023/08/02 13:38:14;;;;;;;2.03;1.58;;;;;;;;;;4997428;28;20190;-72
2023/08/02 13:40:40;;;;;;;1.50;1.40;;;;;;;;;;4971925;28;20642;-72
2023/08/02 13:43:05;;;;;;;3.42;1.70;;;;;;;;;;5005278;28;20310;-75
2023/08/02 13:45:30;;;;;;;1.52;1.42;;;;;;;;;;5004310;28;20202;-73
2023/08/02 13:47:56;;;;;;;1.48;1.38;;;;;;;;;;4999625;28;20282;-72
2023/08/02 13:50:21;;;;;;;1.67;1.40;;;;;;;;;;5004152;28;20259;-72
2023/08/02 13:52:47;;;;;;;2.70;1.33;;;;;;;;;;4996234;28;20722;-72
2023/08/02 13:55:12;;;;;;;1.42;1.15;;;;;;;;;;5016729;28;20235;-76
2023/08/02 13:57:38;;;;;;;2.63;1.10;;;;;;;;;;5003545;28;20669;-74
2023/08/02 14:00:04;;;;;;;1.60;1.10;;;;;;;;;;5008384;28;20215;-73
2023/08/02 14:02:29;;;;;;;1.40;1.23;;;;;;;;;;5001803;28;20199;-73
2023/08/02 14:04:54;;;;;;;1.00;1.00;;;;;;;;;;4997729;28;20199;-77
2023/08/02 14:07:20;;;;;;;2.33;1.05;;;;;;;;;;4999637;28;20245;-72
2023/08/02 14:09:45;;;;;;;1.85;1.40;;;;;;;;;;5010973;28;20509;-72
2023/08/02 14:12:14;;;;;;;1.90;1.13;;;;;;;;;;4999778;28;20199;-72
2023/08/02 14:14:40;;;;;;;3.22;1.40;;;;;;;;;;4994471;28;20197;-72
2023/08/02 14:17:05;;;;;;;2.15;1.60;;;;;;;;;;4996638;28;20210;-72
2023/08/02 14:19:31;;;;;;;1.50;0.88;;;;;;;;;;5010732;28;20201;-73
2023/08/02 14:21:56;;;;;;;1.98;1.17;;;;;;;;;;5003800;28;20264;-72
2023/08/02 14:24:22;;;;;;;1.77;1.10;;;;;;;;;;5014497;28;20301;-71
2023/08/02 14:26:48;;;;;;;2.63;1.20;;;;;;;;;;4993487;28;20184;-74
2023/08/02 14:29:13;;;;;;;3.63;1.02;;;;;;;;;;4988657;28;20227;-73
2023/08/02 14:31:39;;;;;;;3.50;1.30;;;;;;;;;;4991210;28;20187;-72
2023/08/02 14:34:04;;;;;;;1.88;1.10;;;;;;;;;;4983421;28;20278;-73